createdAt,value
2023-02-18T00:01:23.907Z,84.31
2023-02-18T00:05:25.864Z,81.34
2023-02-18T00:09:29.240Z,78.35
2023-02-18T00:13:33.336Z,77.66
2023-02-18T00:17:35.998Z,78.57
2023-02-18T00:21:39.350Z,77.24
2023-02-18T00:25:41.141Z,75.89
2023-02-18T00:29:42.982Z,77.27
2023-02-18T00:33:44.860Z,75.18
2023-02-18T00:37:46.861Z,74.51
2023-02-18T00:41:48.722Z,72.70
2023-02-18T00:45:50.677Z,71.39
2023-02-18T00:49:52.617Z,70.48
2023-02-18T00:53:55.099Z,71.59
2023-02-18T00:57:57.275Z,71.87
2023-02-18T01:01:59.242Z,73.49
2023-02-18T01:06:01.165Z,73.36
2023-02-18T01:10:03.862Z,73.70
2023-02-18T01:14:06.674Z,74.83
2023-02-18T01:18:09.863Z,76.23
2023-02-18T01:22:11.806Z,78.69
2023-02-18T01:26:13.670Z,80.58
2023-02-18T01:30:17.481Z,82.59
2023-02-18T01:34:20.518Z,84.82
2023-02-18T01:38:23.372Z,87.33
2023-02-18T01:42:27.593Z,86.34
2023-02-18T01:46:29.418Z,82.50
2023-02-18T01:50:34.631Z,79.80
2023-02-18T01:54:47.421Z,77.31
2023-02-18T01:58:51.017Z,77.32
2023-02-18T02:02:53.989Z,77.30
2023-02-18T02:07:17.590Z,73.29
2023-02-18T02:11:53.012Z,73.50
2023-02-18T02:16:11.469Z,73.83
2023-02-18T02:20:25.127Z,73.73
2023-02-18T02:25:14.854Z,73.77
2023-02-18T02:29:31.789Z,73.91
2023-02-18T02:34:05.195Z,71.37
2023-02-18T02:38:21.602Z,72.04
2023-02-18T02:42:52.543Z,72.81
2023-02-18T02:47:04.273Z,73.88
2023-02-18T02:51:05.986Z,71.35
2023-02-18T02:55:11.812Z,70.52
2023-02-18T02:59:24.910Z,70.97
2023-02-18T03:03:39.775Z,71.86
2023-02-18T03:08:03.490Z,71.23
2023-02-18T03:12:59.857Z,70.99
2023-02-18T03:17:11.402Z,71.13
2023-02-18T03:21:36.823Z,70.34
2023-02-18T03:25:39.900Z,71.16
2023-02-18T03:29:44.808Z,71.76
2023-02-18T03:33:54.882Z,72.32
2023-02-18T03:38:09.395Z,72.79
2023-02-18T03:42:11.974Z,71.56
2023-02-18T03:46:13.799Z,72.40
2023-02-18T03:50:16.131Z,72.83
2023-02-18T03:54:18.408Z,72.23
2023-02-18T03:58:20.275Z,72.03
2023-02-18T04:02:23.192Z,72.57
2023-02-18T04:06:25.432Z,73.64
2023-02-18T04:10:27.388Z,74.84
2023-02-18T04:14:30.806Z,74.83
2023-02-18T04:18:33.010Z,74.06
2023-02-18T04:22:35.815Z,73.07
2023-02-18T04:26:37.970Z,73.25
2023-02-18T04:30:40.061Z,72.04
2023-02-18T04:34:42.133Z,72.01
2023-02-18T04:38:44.953Z,71.10
2023-02-18T04:42:46.889Z,71.27
2023-02-18T04:46:48.869Z,71.53
2023-02-18T04:50:50.754Z,71.15
2023-02-18T04:54:53.191Z,71.36
2023-02-18T04:58:56.183Z,69.19
2023-02-18T05:02:59.023Z,69.00
2023-02-18T05:07:01.410Z,67.87
2023-02-18T05:11:09.607Z,68.50
2023-02-18T05:15:11.522Z,68.92
2023-02-18T05:19:17.217Z,68.52
2023-02-18T05:23:20.966Z,68.63
2023-02-18T05:27:22.745Z,67.73
2023-02-18T05:31:25.658Z,68.53
2023-02-18T05:35:27.773Z,68.24
2023-02-18T05:39:31.298Z,68.62
2023-02-18T05:43:54.024Z,68.55
2023-02-18T05:47:56.814Z,68.79
2023-02-18T05:51:58.899Z,69.52
2023-02-18T05:56:00.592Z,70.00
2023-02-18T06:00:05.805Z,69.30
2023-02-18T06:04:08.097Z,68.91
2023-02-18T06:08:10.064Z,69.54
2023-02-18T06:12:12.324Z,69.34
2023-02-18T06:16:14.846Z,70.66
2023-02-18T06:20:17.314Z,70.78
2023-02-18T06:24:19.583Z,71.08
2023-02-18T06:28:21.749Z,70.87
2023-02-18T06:32:24.091Z,70.52
2023-02-18T06:36:26.123Z,69.12
2023-02-18T06:40:27.965Z,68.67
2023-02-18T06:44:31.472Z,68.51
2023-02-18T06:48:33.557Z,68.39
2023-02-18T06:52:37.506Z,68.53
2023-02-18T06:56:40.455Z,68.15
2023-02-18T07:00:42.556Z,67.90
2023-02-18T07:04:45.879Z,67.81
2023-02-18T07:08:47.872Z,67.82
2023-02-18T07:12:49.634Z,68.10
2023-02-18T07:16:52.303Z,68.21
2023-02-18T07:20:54.102Z,68.28
2023-02-18T07:24:56.425Z,67.94
2023-02-18T07:28:58.196Z,68.18
2023-02-18T07:33:00.766Z,67.86
2023-02-18T07:37:08.676Z,68.86
2023-02-18T07:41:19.185Z,67.67
2023-02-18T07:45:21.060Z,69.02
2023-02-18T07:49:23.564Z,69.34
2023-02-18T07:53:26.297Z,69.14
2023-02-18T07:57:28.244Z,69.61
2023-02-18T08:01:30.091Z,70.67
2023-02-18T08:05:31.981Z,71.02
2023-02-18T08:09:34.040Z,71.45
2023-02-18T08:13:38.720Z,71.57
2023-02-18T08:17:40.798Z,70.01
2023-02-18T08:21:42.799Z,70.17
2023-02-18T08:25:47.474Z,70.08
2023-02-18T08:29:53.599Z,66.30
2023-02-18T08:33:56.773Z,65.06
2023-02-18T08:37:59.607Z,65.96
2023-02-18T08:42:02.448Z,68.63
2023-02-18T08:46:05.297Z,67.97
2023-02-18T08:50:07.936Z,70.45
2023-02-18T08:54:09.629Z,71.35
2023-02-18T08:58:12.240Z,70.67
2023-02-18T09:02:14.781Z,68.73
2023-02-18T09:06:16.483Z,68.17
2023-02-18T09:10:18.335Z,67.40
2023-02-18T09:14:21.188Z,67.98
2023-02-18T09:18:23.699Z,68.95
2023-02-18T09:22:25.690Z,73.06
2023-02-18T09:26:27.455Z,76.65
2023-02-18T09:30:29.379Z,79.56
2023-02-18T09:34:31.730Z,83.42
2023-02-18T09:38:34.007Z,86.09
2023-02-18T09:42:36.291Z,89.51
2023-02-18T09:46:51.167Z,90.80
2023-02-18T09:50:53.653Z,93.12
2023-02-18T09:54:56.279Z,92.27
2023-02-18T09:59:03.722Z,92.70
2023-02-18T10:03:13.855Z,93.46
2023-02-18T10:07:28.461Z,93.87
2023-02-18T10:11:34.828Z,96.65
2023-02-18T10:15:38.149Z,97.23
2023-02-18T10:19:40.897Z,96.11
2023-02-18T10:24:13.662Z,95.15
2023-02-18T10:28:18.536Z,96.42
2023-02-18T10:32:28.163Z,96.00
2023-02-18T10:36:45.734Z,96.40
2023-02-18T10:40:47.401Z,96.49
2023-02-18T10:44:58.326Z,95.33
2023-02-18T10:49:04.700Z,95.78
2023-02-18T10:53:25.347Z,95.10
2023-02-18T10:57:27.795Z,94.00
2023-02-18T11:01:30.937Z,92.67
2023-02-18T11:05:35.807Z,92.86
2023-02-18T11:09:47.189Z,92.62
2023-02-18T11:13:54.835Z,92.03
2023-02-18T11:18:11.429Z,91.97
2023-02-18T11:22:23.746Z,93.32
2023-02-18T11:26:36.477Z,93.93
2023-02-18T11:30:45.672Z,95.86
2023-02-18T11:34:49.831Z,96.95
2023-02-18T11:39:05.742Z,95.88
2023-02-18T11:43:15.186Z,96.55
2023-02-18T11:47:16.677Z,96.97
2023-02-18T11:51:35.625Z,97.11
2023-02-18T11:55:37.581Z,97.67
2023-02-18T11:59:40.558Z,98.77
2023-02-18T12:03:56.045Z,100.00
2023-02-18T12:08:02.857Z,100.00
2023-02-18T12:12:15.474Z,100.00
2023-02-18T12:16:26.703Z,100.00
2023-02-18T12:20:43.901Z,100.00
2023-02-18T12:25:02.659Z,100.00
2023-02-18T12:29:31.661Z,100.00
2023-02-18T12:33:45.416Z,100.00
2023-02-18T12:38:01.660Z,100.00
2023-02-18T12:42:22.480Z,100.00
2023-02-18T12:46:34.183Z,100.00
2023-02-18T12:50:42.938Z,100.00
2023-02-18T12:55:14.551Z,100.00
2023-02-18T12:59:55.311Z,100.00
2023-02-18T13:04:00.474Z,100.00
2023-02-18T13:08:36.326Z,100.00
2023-02-18T13:12:58.165Z,100.00
2023-02-18T13:17:03.366Z,100.00
2023-02-18T13:21:09.309Z,100.00
2023-02-18T13:25:13.724Z,100.00
2023-02-18T13:29:28.137Z,100.00
2023-02-18T13:33:58.228Z,100.00
2023-02-18T13:38:34.955Z,100.00
2023-02-18T13:42:37.920Z,100.00
2023-02-18T13:46:49.470Z,100.00
2023-02-18T13:50:53.700Z,100.00
2023-02-18T13:54:55.675Z,100.00
2023-02-18T13:59:02.230Z,100.00
2023-02-18T14:03:49.849Z,100.00
2023-02-18T14:08:06.398Z,100.00
2023-02-18T14:12:30.044Z,100.00
2023-02-18T14:17:09.777Z,100.00
2023-02-18T14:21:11.366Z,100.00
2023-02-18T14:25:35.194Z,100.00
2023-02-18T14:29:37.184Z,100.00
2023-02-18T14:34:05.004Z,100.00
2023-02-18T14:38:30.357Z,100.00
2023-02-18T14:42:52.762Z,100.00
2023-02-18T14:47:35.327Z,100.00
2023-02-18T14:51:41.604Z,100.00
2023-02-18T14:55:48.126Z,100.00
2023-02-18T14:59:56.745Z,100.00
2023-02-18T15:03:58.448Z,100.00
2023-02-18T15:08:03.437Z,100.00
2023-02-18T15:12:08.481Z,100.00
2023-02-18T15:16:26.380Z,100.00
2023-02-18T15:20:31.996Z,100.00
2023-02-18T15:24:37.853Z,100.00
2023-02-18T15:28:51.201Z,100.00
2023-02-18T15:32:58.176Z,100.00
2023-02-18T15:37:01.426Z,100.00
2023-02-18T15:41:03.464Z,100.00
2023-02-18T15:45:17.637Z,100.00
2023-02-18T15:49:21.966Z,100.00
2023-02-18T15:53:25.566Z,100.00
2023-02-18T15:57:29.890Z,100.00
2023-02-18T16:01:31.684Z,100.00
2023-02-18T16:05:37.526Z,100.00
2023-02-18T16:09:39.475Z,100.00
2023-02-18T16:13:47.320Z,100.00
2023-02-18T16:17:49.200Z,100.00
2023-02-18T16:21:51.003Z,100.00
2023-02-18T16:25:52.786Z,99.64
2023-02-18T16:30:00.645Z,99.59
2023-02-18T16:34:03.544Z,99.26
2023-02-18T16:38:06.637Z,99.19
2023-02-18T16:42:10.833Z,99.43
2023-02-18T16:46:23.805Z,99.46
2023-02-18T16:50:30.029Z,99.26
2023-02-18T16:54:31.689Z,99.47
2023-02-18T16:58:33.868Z,99.63
2023-02-18T17:02:36.071Z,99.68
2023-02-18T17:06:37.967Z,100.00
2023-02-18T17:10:39.946Z,100.00
2023-02-18T17:14:43.096Z,100.00
2023-02-18T17:18:46.023Z,100.00
2023-02-18T17:22:47.777Z,100.00
2023-02-18T17:26:49.680Z,100.00
2023-02-18T17:30:56.724Z,100.00
2023-02-18T17:34:58.924Z,100.00
2023-02-18T17:39:02.737Z,100.00
2023-02-18T17:43:04.966Z,100.00
2023-02-18T17:47:06.799Z,100.00
2023-02-18T17:51:23.869Z,100.00
2023-02-18T17:55:28.485Z,100.00
2023-02-18T17:59:30.297Z,100.00
2023-02-18T18:03:32.203Z,100.00
2023-02-18T18:07:33.975Z,99.91
2023-02-18T18:11:38.561Z,98.90
2023-02-18T18:15:43.162Z,98.03
2023-02-18T18:19:44.958Z,98.13
2023-02-18T18:23:46.763Z,98.63
2023-02-18T18:27:51.774Z,99.02
2023-02-18T18:31:53.491Z,99.75
2023-02-18T18:35:57.380Z,100.00
2023-02-18T18:40:00.683Z,100.00
2023-02-18T18:44:05.930Z,100.00
2023-02-18T18:48:07.719Z,100.00
2023-02-18T18:52:15.804Z,100.00
2023-02-18T18:56:17.570Z,100.00
2023-02-18T19:00:28.055Z,100.00
2023-02-18T19:04:29.776Z,100.00
2023-02-18T19:08:32.805Z,100.00
2023-02-18T19:12:34.561Z,100.00
2023-02-18T19:16:38.691Z,100.00
2023-02-18T19:20:42.970Z,100.00
2023-02-18T19:24:47.840Z,100.00
2023-02-18T19:28:50.024Z,100.00
2023-02-18T19:32:55.310Z,100.00
2023-02-18T19:36:58.060Z,100.00
2023-02-18T19:41:11.857Z,100.00
2023-02-18T19:45:14.308Z,100.00
2023-02-18T19:49:16.039Z,100.00
2023-02-18T19:53:18.717Z,100.00
2023-02-18T19:57:20.699Z,100.00
2023-02-18T20:01:23.388Z,100.00
2023-02-18T20:05:25.568Z,100.00
2023-02-18T20:09:27.382Z,100.00
2023-02-18T20:13:33.929Z,100.00
2023-02-18T20:17:38.275Z,100.00
2023-02-18T20:21:40.296Z,100.00
2023-02-18T20:25:42.135Z,100.00
2023-02-18T20:29:43.968Z,100.00
2023-02-18T20:33:46.514Z,100.00
2023-02-18T20:37:48.118Z,100.00
2023-02-18T20:41:50.440Z,100.00
2023-02-18T20:45:52.808Z,100.00
2023-02-18T20:49:54.549Z,100.00
2023-02-18T20:53:56.174Z,100.00
2023-02-18T20:57:57.951Z,100.00
2023-02-18T21:02:00.476Z,100.00
2023-02-18T21:06:05.221Z,100.00
2023-02-18T21:10:07.998Z,100.00
2023-02-18T21:14:10.155Z,100.00
2023-02-18T21:18:12.124Z,100.00
2023-02-18T21:22:13.754Z,100.00
2023-02-18T21:26:18.085Z,100.00
2023-02-18T21:30:19.996Z,100.00
2023-02-18T21:34:22.223Z,100.00
2023-02-18T21:38:23.975Z,100.00
2023-02-18T21:42:25.753Z,100.00
2023-02-18T21:46:30.707Z,100.00
2023-02-18T21:50:32.728Z,100.00
2023-02-18T21:54:39.707Z,100.00
2023-02-18T21:58:43.553Z,100.00
2023-02-18T22:02:45.279Z,100.00
2023-02-18T22:06:47.186Z,100.00
2023-02-18T22:10:50.682Z,100.00
2023-02-18T22:14:52.731Z,100.00
2023-02-18T22:18:56.662Z,100.00
2023-02-18T22:22:58.373Z,100.00
2023-02-18T22:27:00.905Z,100.00
2023-02-18T22:31:08.916Z,100.00
2023-02-18T22:35:11.004Z,100.00
2023-02-18T22:39:13.264Z,100.00
2023-02-18T22:43:15.624Z,100.00
2023-02-18T22:47:17.624Z,100.00
2023-02-18T22:51:24.446Z,100.00
2023-02-18T22:55:26.504Z,100.00
2023-02-18T22:59:29.080Z,100.00
2023-02-18T23:03:30.791Z,100.00
2023-02-18T23:07:32.358Z,100.00
2023-02-18T23:11:34.748Z,100.00
2023-02-18T23:15:36.747Z,100.00
2023-02-18T23:19:41.299Z,100.00
2023-02-18T23:23:44.914Z,100.00
2023-02-18T23:27:47.060Z,100.00
2023-02-18T23:31:48.910Z,100.00
2023-02-18T23:35:51.158Z,100.00
2023-02-18T23:39:53.285Z,100.00
2023-02-18T23:43:56.065Z,100.00
2023-02-18T23:47:58.076Z,100.00
2023-02-18T23:51:59.886Z,100.00
2023-02-18T23:56:14.670Z,100.00
